CheckWX is a tool to help pilots better visualize weather data.  It is not intended as a substitute for an official pre-flight weather briefing.

01:50:22 UTC

KBAD TAF
Barksdale AFB Airport
Bossier City, Louisiana, USA
TAF KBAD 191800Z 1918/2024 24006KT 9999 SCT040 QNH2995INS BECMG 2001/2002 15004KT 9999 SCT250 QNH2993INS BECMG 2016/2017 25006KT 9999 SCT040 QNH2993INS TX37/1922Z TN24/2011Z

Aug-19@
18:00 UTC

Aug-19 @ 18:00 UTC

Aug-20@
01:00 UTC

Aug-20 @ 01:00 UTC

TAF KBAD 191800Z 1918/2024 24006KT 9999 SCT040 QNH2995INS

Expired

Wind
  • 240° at 6 KTS
Cloud Levels
  • Scattered at 4,000' AGL

Aug-20@
01:00 UTC

Aug-20 @ 01:00 UTC

Aug-20@
16:00 UTC

Aug-20 @ 16:00 UTC

BECMG 2001/2002 15004KT 9999 SCT250 QNH2993INS

Becoming

Becoming Conditions expected by Tue, Aug 20, 2019 @ 02:00 UTC

Wind
  • 150° at 4 KTS
Cloud Levels
  • Scattered at 25,000' AGL

Aug-20@
16:00 UTC

Aug-20 @ 16:00 UTC

Aug-21@
00:00 UTC

Aug-21 @ 00:00 UTC

BECMG 2016/2017 25006KT 9999 SCT040 QNH2993INS TX37/1922Z TN24/2011Z

Becoming

Becoming Conditions expected by Tue, Aug 20, 2019 @ 17:00 UTC

Wind
  • 250° at 6 KTS
Cloud Levels
  • Scattered at 4,000' AGL